createdAt,value
2022-12-08T00:01:35.196Z,98210.56
2022-12-08T00:04:03.898Z,98210.88
2022-12-08T00:06:55.185Z,98213.69
2022-12-08T00:09:27.299Z,98205.97
2022-12-08T00:11:58.224Z,98220.50
2022-12-08T00:14:27.591Z,98209.53
2022-12-08T00:16:54.750Z,98209.94
2022-12-08T00:19:22.234Z,98214.69
2022-12-08T00:21:48.846Z,98205.94
2022-12-08T00:24:15.651Z,98203.34
2022-12-08T00:26:42.432Z,98206.34
2022-12-08T00:29:13.114Z,98199.00
2022-12-08T00:31:42.536Z,98199.84
2022-12-08T00:34:09.306Z,98198.00
2022-12-08T00:36:35.793Z,98199.31
2022-12-08T00:39:02.425Z,98191.00
2022-12-08T00:41:47.569Z,98195.81
2022-12-08T00:44:15.935Z,98194.25
2022-12-08T00:46:42.734Z,98195.47
2022-12-08T00:49:09.363Z,98191.88
2022-12-08T00:51:36.488Z,98201.78
2022-12-08T00:54:03.863Z,98196.88
2022-12-08T00:56:30.703Z,98195.88
2022-12-08T00:58:57.403Z,98193.09
2022-12-08T01:01:24.245Z,98194.66
2022-12-08T01:03:50.983Z,98195.47
2022-12-08T01:06:17.710Z,98191.06
2022-12-08T01:08:44.769Z,98189.25
2022-12-08T01:11:17.159Z,98187.09
2022-12-08T01:13:45.100Z,98188.31
2022-12-08T01:16:22.545Z,98195.59
2022-12-08T01:18:49.601Z,98186.03
2022-12-08T01:21:17.152Z,98189.63
2022-12-08T01:23:43.674Z,98194.56
2022-12-08T01:26:16.398Z,98191.34
2022-12-08T01:28:44.189Z,98201.59
2022-12-08T01:31:21.612Z,98201.97
2022-12-08T01:33:49.381Z,98193.63
2022-12-08T01:36:27.631Z,98192.84
2022-12-08T01:38:58.775Z,98201.38
2022-12-08T01:41:29.526Z,98185.34
2022-12-08T01:44:08.980Z,98193.09
2022-12-08T01:46:38.511Z,98191.34
2022-12-08T01:49:13.993Z,98198.72
2022-12-08T01:51:55.452Z,98187.00
2022-12-08T01:54:26.110Z,98187.03
2022-12-08T01:56:59.096Z,98189.00
2022-12-08T01:59:30.138Z,98181.44
2022-12-08T02:01:58.012Z,98184.41
2022-12-08T02:04:24.832Z,98181.38
2022-12-08T02:06:53.228Z,98179.53
2022-12-08T02:09:20.412Z,98176.44
2022-12-08T02:11:48.125Z,98173.22
2022-12-08T02:14:15.588Z,98167.44
2022-12-08T02:16:55.368Z,98167.38
2022-12-08T02:19:49.634Z,98158.41
2022-12-08T02:22:26.786Z,98157.59
2022-12-08T02:25:06.663Z,98157.94
2022-12-08T02:27:55.721Z,98151.78
2022-12-08T02:30:26.809Z,98144.00
2022-12-08T02:33:31.181Z,98147.53
2022-12-08T02:36:18.933Z,98141.34
2022-12-08T02:39:02.922Z,98142.13
2022-12-08T02:41:45.835Z,98140.78
2022-12-08T02:44:24.354Z,98141.19
2022-12-08T02:46:56.358Z,98139.59
2022-12-08T02:49:32.044Z,98135.31
2022-12-08T02:52:29.468Z,98133.97
2022-12-08T02:55:01.839Z,98132.59
2022-12-08T02:57:35.923Z,98126.19
2022-12-08T03:00:08.448Z,98124.41
2022-12-08T03:03:05.409Z,98123.09
2022-12-08T03:06:01.560Z,98119.69
2022-12-08T03:08:32.724Z,98117.88
2022-12-08T03:11:14.371Z,98120.06
2022-12-08T03:13:45.761Z,98117.13
2022-12-08T03:16:14.466Z,98112.38
2022-12-08T03:18:48.453Z,98114.59
2022-12-08T03:21:18.302Z,98110.44
2022-12-08T03:23:48.021Z,98115.19
2022-12-08T03:26:24.946Z,98107.16
2022-12-08T03:28:51.623Z,98102.97
2022-12-08T03:31:19.979Z,98103.22
2022-12-08T03:33:52.056Z,98103.56
2022-12-08T03:36:19.752Z,98094.25
2022-12-08T03:38:47.012Z,98097.28
2022-12-08T03:41:19.464Z,98101.47
2022-12-08T03:43:48.180Z,98101.66
2022-12-08T03:46:16.660Z,98096.31
2022-12-08T03:48:43.656Z,98092.94
2022-12-08T03:51:10.278Z,98091.53
2022-12-08T03:53:37.410Z,98087.44
2022-12-08T03:56:05.672Z,98085.22
2022-12-08T03:58:37.173Z,98086.81
2022-12-08T04:01:04.051Z,98079.06
2022-12-08T04:03:30.692Z,98070.91
2022-12-08T04:05:57.195Z,98081.44
2022-12-08T04:08:23.872Z,98075.06
2022-12-08T04:10:50.560Z,98071.66
2022-12-08T04:13:17.146Z,98076.44
2022-12-08T04:15:47.604Z,98074.25
2022-12-08T04:18:15.206Z,98073.47
2022-12-08T04:20:44.028Z,98069.72
2022-12-08T04:23:12.247Z,98074.47
2022-12-08T04:25:39.195Z,98066.56
2022-12-08T04:28:06.325Z,98059.00
2022-12-08T04:30:33.222Z,98073.31
2022-12-08T04:33:04.049Z,98065.75
2022-12-08T04:35:30.725Z,98066.75
2022-12-08T04:37:57.364Z,98066.59
2022-12-08T04:40:26.280Z,98064.25
2022-12-08T04:42:52.805Z,98065.22
2022-12-08T04:45:19.466Z,98058.88
2022-12-08T04:47:45.999Z,98055.13
2022-12-08T04:50:13.368Z,98057.66
2022-12-08T04:52:40.137Z,98061.44
2022-12-08T04:55:06.981Z,98060.06
2022-12-08T04:57:33.605Z,98053.53
2022-12-08T05:00:00.141Z,98047.56
2022-12-08T05:02:26.684Z,98048.91
2022-12-08T05:04:53.328Z,98057.63
2022-12-08T05:07:19.802Z,98059.66
2022-12-08T05:09:46.450Z,98056.06
2022-12-08T05:12:12.947Z,98062.03
2022-12-08T05:14:39.522Z,98044.78
2022-12-08T05:17:09.556Z,98055.34
2022-12-08T05:19:36.484Z,98056.91
2022-12-08T05:22:03.161Z,98051.56
2022-12-08T05:24:29.647Z,98046.00
2022-12-08T05:26:56.152Z,98047.38
2022-12-08T05:29:22.882Z,98052.84
2022-12-08T05:31:49.700Z,98050.88
2022-12-08T05:34:16.380Z,98054.47
2022-12-08T05:36:42.983Z,98053.84
2022-12-08T05:39:13.631Z,98049.56
2022-12-08T05:41:40.449Z,98052.59
2022-12-08T05:44:07.861Z,98054.75
2022-12-08T05:46:36.289Z,98045.38
2022-12-08T05:49:12.505Z,98050.34
2022-12-08T05:51:39.173Z,98048.56
2022-12-08T05:54:06.227Z,98050.34
2022-12-08T05:56:32.745Z,98043.06
2022-12-08T05:59:01.653Z,98046.63
2022-12-08T06:01:32.081Z,98039.50
2022-12-08T06:04:01.300Z,98043.25
2022-12-08T06:06:32.144Z,98046.44
2022-12-08T06:08:58.886Z,98036.94
2022-12-08T06:11:30.080Z,98042.03
2022-12-08T06:13:57.722Z,98048.00
2022-12-08T06:16:27.707Z,98050.22
2022-12-08T06:18:55.587Z,98032.03
2022-12-08T06:21:22.150Z,98042.28
2022-12-08T06:23:50.606Z,98043.09
2022-12-08T06:26:17.881Z,98043.91
2022-12-08T06:28:51.903Z,98050.63
2022-12-08T06:31:26.358Z,98038.38
2022-12-08T06:33:54.469Z,98040.59
2022-12-08T06:36:24.107Z,98048.72
2022-12-08T06:38:51.016Z,98040.53
2022-12-08T06:41:17.589Z,98038.97
2022-12-08T06:43:44.590Z,98043.50
2022-12-08T06:46:14.372Z,98039.56
2022-12-08T06:48:41.559Z,98044.94
2022-12-08T06:51:15.801Z,98042.09
2022-12-08T06:53:43.571Z,98047.47
2022-12-08T06:56:11.100Z,98040.75
2022-12-08T06:58:38.314Z,98039.97
2022-12-08T07:01:13.030Z,98051.31
2022-12-08T07:03:40.983Z,98053.03
2022-12-08T07:06:07.784Z,98049.47
2022-12-08T07:08:35.202Z,98053.25
2022-12-08T07:11:09.824Z,98048.72
2022-12-08T07:13:36.666Z,98052.25
2022-12-08T07:16:21.676Z,98052.69
2022-12-08T07:18:48.586Z,98063.19
2022-12-08T07:21:16.082Z,98053.31
2022-12-08T07:23:45.679Z,98055.47
2022-12-08T07:26:13.365Z,98049.56
2022-12-08T07:28:41.614Z,98052.13
2022-12-08T07:31:17.093Z,98046.53
2022-12-08T07:33:43.923Z,98057.66
2022-12-08T07:36:10.847Z,98057.03
2022-12-08T07:38:37.370Z,98054.28
2022-12-08T07:41:04.178Z,98051.94
2022-12-08T07:43:31.117Z,98056.91
2022-12-08T07:45:57.798Z,98058.06
2022-12-08T07:48:24.616Z,98056.28
2022-12-08T07:50:51.491Z,98049.13
2022-12-08T07:53:22.220Z,98045.97
2022-12-08T07:55:48.801Z,98046.91
2022-12-08T07:58:15.408Z,98048.91
2022-12-08T08:00:42.071Z,98045.97
2022-12-08T08:03:11.495Z,98043.97
2022-12-08T08:05:38.757Z,98045.78
2022-12-08T08:08:05.828Z,98051.78
2022-12-08T08:10:32.677Z,98051.19
2022-12-08T08:12:59.750Z,98052.41
2022-12-08T08:15:27.728Z,98056.97
2022-12-08T08:17:54.663Z,98055.56
2022-12-08T08:20:24.807Z,98043.47
2022-12-08T08:22:52.141Z,98048.63
2022-12-08T08:25:20.590Z,98042.50
2022-12-08T08:27:47.413Z,98043.47
2022-12-08T08:30:20.058Z,98050.03
2022-12-08T08:32:50.624Z,98048.44
2022-12-08T08:35:17.383Z,98048.03
2022-12-08T08:37:49.190Z,98046.66
2022-12-08T08:40:19.318Z,98053.22
2022-12-08T08:42:45.860Z,98051.81
2022-12-08T08:45:12.509Z,98045.69
2022-12-08T08:47:39.180Z,98042.06
2022-12-08T08:50:07.068Z,98049.25
2022-12-08T08:52:34.054Z,98048.63
2022-12-08T08:55:00.598Z,98044.06
2022-12-08T08:57:27.144Z,98037.94
2022-12-08T08:59:54.309Z,98042.50
2022-12-08T09:02:22.073Z,98038.31
2022-12-08T09:04:49.144Z,98046.66
2022-12-08T09:07:16.512Z,98044.28
2022-12-08T09:09:46.168Z,98040.50
2022-12-08T09:12:13.540Z,98048.41
2022-12-08T09:14:40.703Z,98044.88
2022-12-08T09:17:07.696Z,98035.13
2022-12-08T09:19:34.860Z,98040.25
2022-12-08T09:22:02.263Z,98041.44
2022-12-08T09:24:29.634Z,98038.03
2022-12-08T09:26:56.721Z,98039.63
2022-12-08T09:29:24.578Z,98043.25
2022-12-08T09:31:51.684Z,98035.09
2022-12-08T09:34:18.604Z,98031.91
2022-12-08T09:36:45.438Z,98032.53
2022-12-08T09:39:12.081Z,98030.13
2022-12-08T09:41:54.690Z,98038.69
2022-12-08T09:44:44.354Z,98033.13
2022-12-08T09:47:20.225Z,98036.47
2022-12-08T09:50:04.513Z,98028.31
2022-12-08T09:52:36.632Z,98023.91
2022-12-08T09:55:18.009Z,98023.16
2022-12-08T09:57:44.957Z,98021.72
2022-12-08T10:00:13.890Z,98014.75
2022-12-08T10:02:47.597Z,98005.34
2022-12-08T10:05:16.205Z,98007.41
2022-12-08T10:07:48.736Z,98002.00
2022-12-08T10:10:27.901Z,98000.59
2022-12-08T10:13:20.553Z,97997.44
2022-12-08T10:16:08.837Z,97997.81
2022-12-08T10:18:37.874Z,98000.41
2022-12-08T10:21:16.790Z,98003.22
2022-12-08T10:23:51.084Z,97998.81
2022-12-08T10:26:22.721Z,97990.66
2022-12-08T10:28:49.536Z,97992.13
2022-12-08T10:31:19.183Z,97976.94
2022-12-08T10:33:48.594Z,97974.53
2022-12-08T10:36:15.298Z,97976.75
2022-12-08T10:38:41.998Z,97969.47
2022-12-08T10:41:11.588Z,97966.25
2022-12-08T10:43:48.431Z,97965.84
2022-12-08T10:46:21.726Z,97961.44
2022-12-08T10:48:54.308Z,97955.69
2022-12-08T10:51:29.880Z,97959.22
2022-12-08T10:53:57.242Z,97956.63
2022-12-08T10:56:30.083Z,97953.91
2022-12-08T10:59:19.805Z,97947.88
2022-12-08T11:01:51.500Z,97938.44
2022-12-08T11:04:36.483Z,97938.31
2022-12-08T11:07:05.906Z,97941.06
2022-12-08T11:09:48.958Z,97941.03
2022-12-08T11:12:17.622Z,97942.00
2022-12-08T11:14:44.214Z,97937.00
2022-12-08T11:17:14.724Z,97929.66
2022-12-08T11:19:44.309Z,97928.47
2022-12-08T11:22:34.244Z,97922.78
2022-12-08T11:25:11.540Z,97920.06
2022-12-08T11:27:43.702Z,97913.59
2022-12-08T11:30:24.107Z,97922.41
2022-12-08T11:32:55.622Z,97918.31
2022-12-08T11:35:37.485Z,97912.44
2022-12-08T11:38:21.584Z,97906.44
2022-12-08T11:40:53.367Z,97909.09
2022-12-08T11:43:46.062Z,97906.94
2022-12-08T11:46:20.104Z,97910.88
2022-12-08T11:49:06.442Z,97911.28
2022-12-08T11:52:18.440Z,97902.41
2022-12-08T11:54:59.661Z,97903.28
2022-12-08T11:57:29.641Z,97906.44
2022-12-08T11:59:58.619Z,97904.44
2022-12-08T12:02:32.057Z,97907.03
2022-12-08T12:05:10.744Z,97902.25
2022-12-08T12:08:08.579Z,97899.91
2022-12-08T12:10:41.108Z,97891.69
2022-12-08T12:13:41.741Z,97893.84
2022-12-08T12:16:33.741Z,97891.63
2022-12-08T12:19:10.403Z,97889.66
2022-12-08T12:21:42.716Z,97890.38
2022-12-08T12:24:23.806Z,97887.50
2022-12-08T12:27:02.685Z,97885.91
2022-12-08T12:29:33.063Z,97887.81
2022-12-08T12:32:08.615Z,97883.44
2022-12-08T12:34:46.460Z,97883.50
2022-12-08T12:37:18.255Z,97887.44
2022-12-08T12:39:57.742Z,97883.94
2022-12-08T12:42:49.305Z,97878.59
2022-12-08T12:45:20.063Z,97881.31
2022-12-08T12:48:20.250Z,97886.50
2022-12-08T12:50:50.280Z,97887.88
2022-12-08T12:53:16.608Z,97884.91
2022-12-08T12:55:46.247Z,97888.53
2022-12-08T12:58:27.879Z,97877.41
2022-12-08T13:01:12.946Z,97877.69
2022-12-08T13:03:43.736Z,97870.75
2022-12-08T13:06:15.177Z,97870.72
2022-12-08T13:08:53.375Z,97872.41
2022-12-08T13:11:21.566Z,97871.03
2022-12-08T13:14:00.204Z,97865.94
2022-12-08T13:16:31.608Z,97860.53
2022-12-08T13:19:02.809Z,97856.28
2022-12-08T13:21:36.756Z,97865.31
2022-12-08T13:24:19.774Z,97860.38
2022-12-08T13:27:10.133Z,97856.03
2022-12-08T13:29:41.090Z,97849.97
2022-12-08T13:32:10.555Z,97852.00
2022-12-08T13:34:56.850Z,97850.72
2022-12-08T13:37:48.120Z,97847.06
2022-12-08T13:40:24.986Z,97845.56
2022-12-08T13:43:06.745Z,97841.47
2022-12-08T13:49:52.693Z,97847.00
2022-12-08T13:57:27.219Z,97849.22
2022-12-08T14:02:53.046Z,97846.38
2022-12-08T14:11:10.827Z,97854.16
2022-12-08T14:13:43.958Z,97852.47
2022-12-08T14:16:29.029Z,97855.44
2022-12-08T14:19:03.363Z,97856.03
2022-12-08T14:21:35.830Z,97861.47
2022-12-08T14:24:08.267Z,97862.06
2022-12-08T14:26:40.954Z,97861.69
2022-12-08T14:29:29.095Z,97858.19
2022-12-08T14:32:01.384Z,97856.56
2022-12-08T14:34:28.897Z,97856.16
2022-12-08T14:36:55.969Z,97848.41
2022-12-08T14:39:25.083Z,97850.59
2022-12-08T14:42:01.593Z,97850.97
2022-12-08T14:44:42.709Z,97850.56
2022-12-08T14:47:12.061Z,97852.41
2022-12-08T14:49:39.942Z,97849.41
2022-12-08T14:52:11.675Z,97845.38
2022-12-08T14:54:40.416Z,97847.16
2022-12-08T14:57:08.050Z,97844.34
2022-12-08T14:59:38.148Z,97846.75
2022-12-08T15:02:16.114Z,97847.53
2022-12-08T15:04:47.806Z,97847.22
2022-12-08T15:07:21.455Z,97848.47
2022-12-08T15:09:57.645Z,97847.00
2022-12-08T15:12:32.063Z,97848.59
2022-12-08T15:15:02.858Z,97855.38
2022-12-08T15:17:44.805Z,97855.38
2022-12-08T15:20:46.224Z,97852.19
2022-12-08T15:23:43.282Z,97853.66
2022-12-08T15:26:20.323Z,97862.53
2022-12-08T15:28:47.316Z,97848.06
2022-12-08T15:31:26.235Z,97856.91
2022-12-08T15:33:53.366Z,97853.47
2022-12-08T15:36:20.082Z,97850.25
2022-12-08T15:38:46.649Z,97855.94
2022-12-08T15:41:15.362Z,97856.53
2022-12-08T15:43:42.179Z,97847.19
2022-12-08T15:46:09.141Z,97849.59
2022-12-08T15:48:37.862Z,97844.97
2022-12-08T15:51:04.500Z,97846.59
2022-12-08T15:53:31.054Z,97843.56
2022-12-08T15:58:56.062Z,97850.81
2022-12-08T16:01:23.851Z,97844.50
2022-12-08T16:09:42.283Z,97844.31
2022-12-08T16:13:27.281Z,97841.56
2022-12-08T16:18:23.188Z,97845.25
2022-12-08T16:23:45.293Z,97844.03
2022-12-08T16:26:28.322Z,97847.50
2022-12-08T16:29:02.476Z,97848.38
2022-12-08T16:31:29.273Z,97847.38
2022-12-08T16:33:56.020Z,97853.91
2022-12-08T16:36:22.633Z,97841.00
2022-12-08T16:38:49.574Z,97841.34
2022-12-08T16:41:36.336Z,97845.91
2022-12-08T16:44:05.714Z,97854.09
2022-12-08T16:46:36.020Z,97846.16
2022-12-08T16:49:03.389Z,97847.81
2022-12-08T16:51:30.036Z,97849.97
2022-12-08T16:53:59.761Z,97840.88
2022-12-08T16:56:32.739Z,97841.22
2022-12-08T16:59:01.464Z,97851.91
2022-12-08T17:01:28.205Z,97849.88
2022-12-08T17:04:30.005Z,97851.13
2022-12-08T17:06:41.442Z,97852.38
2022-12-08T17:09:07.883Z,97849.19
2022-12-08T17:11:40.845Z,97851.56
2022-12-08T17:14:09.681Z,97848.19
2022-12-08T17:16:36.605Z,97850.88
2022-12-08T17:19:03.469Z,97841.34
2022-12-08T17:21:30.099Z,97845.75
2022-12-08T17:23:57.007Z,97848.75
2022-12-08T17:26:23.612Z,97844.91
2022-12-08T17:29:06.054Z,97847.44
2022-12-08T17:31:36.067Z,97843.69
2022-12-08T17:34:05.798Z,97845.47
2022-12-08T17:36:32.674Z,97846.09
2022-12-08T17:39:00.485Z,97843.16
2022-12-08T17:41:28.049Z,97841.00
2022-12-08T17:43:54.633Z,97840.78
2022-12-08T17:46:21.575Z,97835.00
2022-12-08T17:48:48.210Z,97839.75
2022-12-08T17:51:15.205Z,97844.72
2022-12-08T17:53:42.016Z,97847.69
2022-12-08T17:56:21.228Z,97845.06
2022-12-08T17:58:52.821Z,97845.09
2022-12-08T18:01:22.579Z,97845.22
2022-12-08T18:03:49.314Z,97845.56
2022-12-08T18:06:17.571Z,97844.31
2022-12-08T18:08:44.796Z,97839.56
2022-12-08T18:11:17.449Z,97846.78
2022-12-08T18:13:44.518Z,97845.41
2022-12-08T18:16:11.388Z,97846.22
2022-12-08T18:18:37.967Z,97843.63
2022-12-08T18:21:04.600Z,97836.25
2022-12-08T18:23:31.216Z,97842.63
2022-12-08T18:25:57.841Z,97850.41
2022-12-08T18:28:24.731Z,97841.47
2022-12-08T18:30:51.382Z,97837.47
2022-12-08T18:33:17.923Z,97840.69
2022-12-08T18:35:45.620Z,97837.72
2022-12-08T18:38:12.085Z,97836.13
2022-12-08T18:40:38.885Z,97830.97
2022-12-08T18:43:05.482Z,97826.78
2022-12-08T18:45:32.190Z,97823.81
2022-12-08T18:47:58.769Z,97818.06
2022-12-08T18:50:25.296Z,97823.00
2022-12-08T18:52:51.763Z,97832.53
2022-12-08T18:55:18.580Z,97825.78
2022-12-08T18:57:45.544Z,97823.44
2022-12-08T19:00:17.056Z,97827.75
2022-12-08T19:02:45.284Z,97826.81
2022-12-08T19:05:13.459Z,97822.03
2022-12-08T19:07:40.108Z,97814.94
2022-12-08T19:10:10.205Z,97815.75
2022-12-08T19:12:38.189Z,97816.34
2022-12-08T19:15:05.637Z,97818.56
2022-12-08T19:17:32.521Z,97823.09
2022-12-08T19:20:02.164Z,97818.13
2022-12-08T19:22:28.825Z,97816.34
2022-12-08T19:24:57.792Z,97822.31
2022-12-08T19:27:24.640Z,97817.56
2022-12-08T19:29:51.359Z,97816.53
2022-12-08T19:32:23.406Z,97822.91
2022-12-08T19:34:53.070Z,97818.28
2022-12-08T19:37:23.738Z,97818.13
2022-12-08T19:40:22.023Z,97828.03
2022-12-08T19:43:07.223Z,97821.06
2022-12-08T19:45:40.983Z,97820.94
2022-12-08T19:48:07.754Z,97820.56
2022-12-08T19:50:38.206Z,97817.56
2022-12-08T19:53:14.901Z,97817.56
2022-12-08T19:55:43.354Z,97813.00
2022-12-08T19:58:11.418Z,97808.84
2022-12-08T20:00:39.038Z,97811.41
2022-12-08T20:03:06.580Z,97815.00
2022-12-08T20:05:40.244Z,97809.06
2022-12-08T20:08:07.162Z,97809.66
2022-12-08T20:10:37.657Z,97804.50
2022-12-08T20:13:23.985Z,97810.50
2022-12-08T20:15:51.174Z,97805.53
2022-12-08T20:18:21.176Z,97813.66
2022-12-08T20:20:48.758Z,97806.72
2022-12-08T20:23:20.974Z,97814.47
2022-12-08T20:25:49.720Z,97812.28
2022-12-08T20:28:18.958Z,97812.09
2022-12-08T20:30:49.295Z,97808.91
2022-12-08T20:33:18.106Z,97815.47
2022-12-08T20:35:46.260Z,97809.34
2022-12-08T20:38:14.659Z,97812.53
2022-12-08T20:40:43.921Z,97815.91
2022-12-08T20:43:10.631Z,97813.50
2022-12-08T20:45:37.836Z,97812.50
2022-12-08T20:48:04.876Z,97814.72
2022-12-08T20:50:34.701Z,97819.66
2022-12-08T20:53:01.576Z,97819.88
2022-12-08T20:55:28.602Z,97824.03
2022-12-08T20:57:58.238Z,97826.00
2022-12-08T21:00:27.369Z,97824.81
2022-12-08T21:02:56.826Z,97830.78
2022-12-08T21:05:24.103Z,97825.22
2022-12-08T21:07:51.048Z,97819.88
2022-12-08T21:10:17.991Z,97822.25
2022-12-08T21:12:47.308Z,97823.63
2022-12-08T21:15:14.106Z,97818.06
2022-12-08T21:17:40.961Z,97817.28
2022-12-08T21:20:10.175Z,97820.06
2022-12-08T21:22:37.209Z,97813.09
2022-12-08T21:25:04.144Z,97819.06
2022-12-08T21:27:31.414Z,97818.47
2022-12-08T21:29:59.121Z,97822.41
2022-12-08T21:32:30.335Z,97825.19
2022-12-08T21:35:00.365Z,97819.66
2022-12-08T21:37:27.441Z,97824.41
2022-12-08T21:39:54.101Z,97815.28
2022-12-08T21:42:39.625Z,97812.09
2022-12-08T21:45:06.770Z,97810.50
2022-12-08T21:47:36.602Z,97821.78
2022-12-08T21:50:05.439Z,97814.63
2022-12-08T21:52:39.197Z,97816.22
2022-12-08T21:55:10.734Z,97818.41
2022-12-08T21:57:37.719Z,97819.75
2022-12-08T22:00:06.853Z,97816.97
2022-12-08T22:02:34.145Z,97819.28
2022-12-08T22:05:00.935Z,97818.69
2022-12-08T22:07:27.709Z,97820.47
2022-12-08T22:09:57.238Z,97811.19
2022-12-08T22:12:24.237Z,97814.53
2022-12-08T22:14:51.202Z,97811.53
2022-12-08T22:17:18.909Z,97818.88
2022-12-08T22:19:46.057Z,97814.28
2022-12-08T22:22:12.938Z,97819.25
2022-12-08T22:24:42.453Z,97818.06
2022-12-08T22:27:09.274Z,97813.09
2022-12-08T22:29:36.125Z,97810.06
2022-12-08T22:32:02.918Z,97817.88
2022-12-08T22:34:30.569Z,97820.22
2022-12-08T22:36:57.605Z,97819.06
2022-12-08T22:39:24.646Z,97812.25
2022-12-08T22:41:53.664Z,97817.50
2022-12-08T22:44:20.728Z,97813.91
2022-12-08T22:46:47.871Z,97812.47
2022-12-08T22:49:14.606Z,97810.72
2022-12-08T22:51:41.242Z,97804.03
2022-12-08T22:54:10.730Z,97806.97
2022-12-08T22:56:37.585Z,97801.94
2022-12-08T22:59:04.493Z,97805.44
2022-12-08T23:01:32.784Z,97799.28
2022-12-08T23:04:00.461Z,97808.75
2022-12-08T23:06:28.634Z,97806.47
2022-12-08T23:08:56.257Z,97807.13
2022-12-08T23:11:25.383Z,97811.59
2022-12-08T23:13:52.311Z,97807.31
2022-12-08T23:16:19.158Z,97805.25
2022-12-08T23:18:46.878Z,97807.16
2022-12-08T23:21:17.696Z,97806.88
2022-12-08T23:23:44.676Z,97817.53
2022-12-08T23:26:32.056Z,97805.16
2022-12-08T23:28:59.609Z,97806.44
2022-12-08T23:31:27.252Z,97803.47
2022-12-08T23:33:54.724Z,97793.00
2022-12-08T23:36:24.990Z,97792.88
2022-12-08T23:38:52.792Z,97795.69
2022-12-08T23:41:19.455Z,97792.88
2022-12-08T23:43:48.543Z,97792.44
2022-12-08T23:46:17.251Z,97788.69
2022-12-08T23:48:44.229Z,97790.53
2022-12-08T23:51:11.638Z,97790.88
2022-12-08T23:53:38.426Z,97787.00
2022-12-08T23:56:08.226Z,97782.03
